sensor_id;sensor_type;location;lat;lon;timestamp;P1;durP1;ratioP1;P2;durP2;ratioP2
20482;SDS011;10400;53.198;6.592;2023-09-19T00:02:26;15.82;;;2.28;;
20482;SDS011;10400;53.198;6.592;2023-09-19T00:04:52;9.38;;;2.15;;
20482;SDS011;10400;53.198;6.592;2023-09-19T00:07:18;9.77;;;2.40;;
20482;SDS011;10400;53.198;6.592;2023-09-19T00:09:44;11.02;;;1.95;;
20482;SDS011;10400;53.198;6.592;2023-09-19T00:12:10;8.85;;;2.00;;
20482;SDS011;10400;53.198;6.592;2023-09-19T00:14:38;14.75;;;2.58;;
20482;SDS011;10400;53.198;6.592;2023-09-19T00:17:03;9.23;;;2.13;;
20482;SDS011;10400;53.198;6.592;2023-09-19T00:19:35;7.88;;;1.83;;
20482;SDS011;10400;53.198;6.592;2023-09-19T00:22:02;9.60;;;1.92;;
20482;SDS011;10400;53.198;6.592;2023-09-19T00:24:28;9.57;;;2.10;;
20482;SDS011;10400;53.198;6.592;2023-09-19T00:26:54;9.70;;;2.72;;
20482;SDS011;10400;53.198;6.592;2023-09-19T00:29:20;10.80;;;1.92;;
20482;SDS011;10400;53.198;6.592;2023-09-19T00:31:48;8.68;;;2.03;;
20482;SDS011;10400;53.198;6.592;2023-09-19T00:34:14;8.65;;;2.17;;
20482;SDS011;10400;53.198;6.592;2023-09-19T00:36:41;5.30;;;1.90;;
20482;SDS011;10400;53.198;6.592;2023-09-19T00:39:08;9.75;;;2.08;;
20482;SDS011;10400;53.198;6.592;2023-09-19T00:41:34;11.25;;;1.70;;
20482;SDS011;10400;53.198;6.592;2023-09-19T00:44:03;10.75;;;2.55;;
20482;SDS011;10400;53.198;6.592;2023-09-19T00:46:30;15.88;;;2.83;;
20482;SDS011;10400;53.198;6.592;2023-09-19T00:48:57;12.32;;;2.08;;
20482;SDS011;10400;53.198;6.592;2023-09-19T00:51:24;12.48;;;2.33;;
20482;SDS011;10400;53.198;6.592;2023-09-19T00:53:51;10.65;;;1.77;;
20482;SDS011;10400;53.198;6.592;2023-09-19T00:56:18;9.05;;;2.53;;
20482;SDS011;10400;53.198;6.592;2023-09-19T00:58:47;9.00;;;2.28;;
20482;SDS011;10400;53.198;6.592;2023-09-19T01:01:13;8.30;;;1.92;;
20482;SDS011;10400;53.198;6.592;2023-09-19T01:03:42;11.40;;;1.98;;
20482;SDS011;10400;53.198;6.592;2023-09-19T01:06:09;7.93;;;2.10;;
20482;SDS011;10400;53.198;6.592;2023-09-19T01:08:35;13.18;;;2.30;;
20482;SDS011;10400;53.198;6.592;2023-09-19T01:13:43;11.38;;;2.60;;
20482;SDS011;10400;53.198;6.592;2023-09-19T01:16:50;7.68;;;1.90;;
20482;SDS011;10400;53.198;6.592;2023-09-19T01:22:10;13.20;;;2.10;;
20482;SDS011;10400;53.198;6.592;2023-09-19T01:30:17;10.65;;;2.03;;
20482;SDS011;10400;53.198;6.592;2023-09-19T01:32:47;7.50;;;1.67;;
20482;SDS011;10400;53.198;6.592;2023-09-19T01:35:17;16.75;;;2.00;;
20482;SDS011;10400;53.198;6.592;2023-09-19T01:37:43;10.07;;;2.00;;
20482;SDS011;10400;53.198;6.592;2023-09-19T01:40:10;12.23;;;2.00;;
20482;SDS011;10400;53.198;6.592;2023-09-19T01:42:45;9.70;;;2.38;;
20482;SDS011;10400;53.198;6.592;2023-09-19T01:45:24;6.60;;;1.52;;
20482;SDS011;10400;53.198;6.592;2023-09-19T01:48:01;8.85;;;1.65;;
20482;SDS011;10400;53.198;6.592;2023-09-19T01:51:03;12.63;;;2.15;;
20482;SDS011;10400;53.198;6.592;2023-09-19T01:53:35;7.32;;;1.67;;
20482;SDS011;10400;53.198;6.592;2023-09-19T01:56:08;10.65;;;2.25;;
20482;SDS011;10400;53.198;6.592;2023-09-19T01:58:53;8.43;;;2.10;;
20482;SDS011;10400;53.198;6.592;2023-09-19T02:01:24;9.13;;;1.98;;
20482;SDS011;10400;53.198;6.592;2023-09-19T02:03:51;12.82;;;2.47;;
20482;SDS011;10400;53.198;6.592;2023-09-19T02:06:17;11.48;;;1.70;;
20482;SDS011;10400;53.198;6.592;2023-09-19T02:08:44;11.93;;;2.03;;
20482;SDS011;10400;53.198;6.592;2023-09-19T02:11:11;11.68;;;2.10;;
20482;SDS011;10400;53.198;6.592;2023-09-19T02:13:38;10.48;;;2.25;;
20482;SDS011;10400;53.198;6.592;2023-09-19T02:16:03;10.43;;;2.30;;
20482;SDS011;10400;53.198;6.592;2023-09-19T02:18:30;6.30;;;1.85;;
20482;SDS011;10400;53.198;6.592;2023-09-19T02:20:56;12.60;;;1.95;;
20482;SDS011;10400;53.198;6.592;2023-09-19T02:23:23;8.00;;;2.38;;
20482;SDS011;10400;53.198;6.592;2023-09-19T02:25:55;9.43;;;2.08;;
20482;SDS011;10400;53.198;6.592;2023-09-19T02:28:25;11.95;;;1.92;;
20482;SDS011;10400;53.198;6.592;2023-09-19T02:30:58;10.43;;;1.90;;
20482;SDS011;10400;53.198;6.592;2023-09-19T02:33:24;9.50;;;1.83;;
20482;SDS011;10400;53.198;6.592;2023-09-19T02:35:54;11.70;;;2.20;;
20482;SDS011;10400;53.198;6.592;2023-09-19T02:38:22;9.98;;;1.83;;
20482;SDS011;10400;53.198;6.592;2023-09-19T02:40:50;12.15;;;2.20;;
20482;SDS011;10400;53.198;6.592;2023-09-19T02:43:16;8.68;;;1.90;;
20482;SDS011;10400;53.198;6.592;2023-09-19T02:45:42;15.80;;;2.17;;
20482;SDS011;10400;53.198;6.592;2023-09-19T02:48:08;7.18;;;2.08;;
20482;SDS011;10400;53.198;6.592;2023-09-19T02:50:33;11.00;;;1.98;;
20482;SDS011;10400;53.198;6.592;2023-09-19T02:52:59;12.30;;;2.72;;
20482;SDS011;10400;53.198;6.592;2023-09-19T02:55:25;9.05;;;1.90;;
20482;SDS011;10400;53.198;6.592;2023-09-19T02:57:51;9.98;;;1.95;;
20482;SDS011;10400;53.198;6.592;2023-09-19T03:00:19;9.88;;;1.85;;
20482;SDS011;10400;53.198;6.592;2023-09-19T03:02:46;8.88;;;1.77;;
20482;SDS011;10400;53.198;6.592;2023-09-19T03:05:15;8.82;;;2.53;;
20482;SDS011;10400;53.198;6.592;2023-09-19T03:07:41;9.13;;;1.77;;
20482;SDS011;10400;53.198;6.592;2023-09-19T03:10:08;10.88;;;2.80;;
20482;SDS011;10400;53.198;6.592;2023-09-19T03:12:34;10.30;;;2.08;;
20482;SDS011;10400;53.198;6.592;2023-09-19T03:15:00;7.00;;;1.48;;
20482;SDS011;10400;53.198;6.592;2023-09-19T03:17:26;13.23;;;2.03;;
20482;SDS011;10400;53.198;6.592;2023-09-19T03:19:52;11.85;;;1.88;;
20482;SDS011;10400;53.198;6.592;2023-09-19T03:22:19;9.95;;;2.00;;
20482;SDS011;10400;53.198;6.592;2023-09-19T03:24:44;7.15;;;2.00;;
20482;SDS011;10400;53.198;6.592;2023-09-19T03:27:11;13.05;;;2.17;;
20482;SDS011;10400;53.198;6.592;2023-09-19T03:29:41;6.53;;;1.35;;
20482;SDS011;10400;53.198;6.592;2023-09-19T03:32:07;6.07;;;1.48;;
20482;SDS011;10400;53.198;6.592;2023-09-19T03:34:36;9.95;;;1.73;;
20482;SDS011;10400;53.198;6.592;2023-09-19T03:37:05;10.68;;;2.30;;
20482;SDS011;10400;53.198;6.592;2023-09-19T03:39:32;9.98;;;1.77;;
20482;SDS011;10400;53.198;6.592;2023-09-19T03:41:57;9.93;;;1.83;;
20482;SDS011;10400;53.198;6.592;2023-09-19T03:44:23;7.90;;;1.75;;
20482;SDS011;10400;53.198;6.592;2023-09-19T03:50:11;9.73;;;2.20;;
20482;SDS011;10400;53.198;6.592;2023-09-19T03:52:37;13.23;;;2.58;;
20482;SDS011;10400;53.198;6.592;2023-09-19T03:55:02;11.40;;;2.20;;
20482;SDS011;10400;53.198;6.592;2023-09-19T03:57:29;10.27;;;1.90;;
20482;SDS011;10400;53.198;6.592;2023-09-19T03:59:55;10.27;;;2.10;;
20482;SDS011;10400;53.198;6.592;2023-09-19T04:02:24;9.35;;;2.20;;
20482;SDS011;10400;53.198;6.592;2023-09-19T04:04:54;7.30;;;1.75;;
20482;SDS011;10400;53.198;6.592;2023-09-19T04:07:20;11.98;;;1.95;;
20482;SDS011;10400;53.198;6.592;2023-09-19T04:09:47;7.03;;;2.00;;
20482;SDS011;10400;53.198;6.592;2023-09-19T04:12:14;10.68;;;1.90;;
20482;SDS011;10400;53.198;6.592;2023-09-19T04:14:42;8.07;;;2.00;;
20482;SDS011;10400;53.198;6.592;2023-09-19T04:17:07;9.82;;;2.20;;
20482;SDS011;10400;53.198;6.592;2023-09-19T04:19:33;8.43;;;1.95;;
20482;SDS011;10400;53.198;6.592;2023-09-19T04:21:59;15.23;;;2.38;;
20482;SDS011;10400;53.198;6.592;2023-09-19T04:24:24;11.13;;;1.65;;
20482;SDS011;10400;53.198;6.592;2023-09-19T04:26:50;9.10;;;1.83;;
20482;SDS011;10400;53.198;6.592;2023-09-19T04:29:15;12.80;;;2.00;;
20482;SDS011;10400;53.198;6.592;2023-09-19T04:31:44;7.82;;;2.25;;
20482;SDS011;10400;53.198;6.592;2023-09-19T04:34:10;10.63;;;1.63;;
20482;SDS011;10400;53.198;6.592;2023-09-19T04:36:39;10.93;;;1.85;;
20482;SDS011;10400;53.198;6.592;2023-09-19T04:39:05;8.20;;;2.13;;
20482;SDS011;10400;53.198;6.592;2023-09-19T04:41:33;6.60;;;2.35;;
20482;SDS011;10400;53.198;6.592;2023-09-19T04:43:59;9.43;;;1.92;;
20482;SDS011;10400;53.198;6.592;2023-09-19T04:46:25;8.23;;;2.10;;
20482;SDS011;10400;53.198;6.592;2023-09-19T04:48:51;8.38;;;1.95;;
20482;SDS011;10400;53.198;6.592;2023-09-19T04:51:16;6.95;;;2.22;;
20482;SDS011;10400;53.198;6.592;2023-09-19T04:53:43;12.75;;;2.00;;
20482;SDS011;10400;53.198;6.592;2023-09-19T04:56:09;14.32;;;2.70;;
20482;SDS011;10400;53.198;6.592;2023-09-19T04:58:35;11.68;;;2.17;;
20482;SDS011;10400;53.198;6.592;2023-09-19T05:01:00;8.57;;;2.63;;
20482;SDS011;10400;53.198;6.592;2023-09-19T05:03:27;13.05;;;2.17;;
20482;SDS011;10400;53.198;6.592;2023-09-19T05:05:52;10.70;;;2.10;;
20482;SDS011;10400;53.198;6.592;2023-09-19T05:08:19;9.35;;;1.77;;
20482;SDS011;10400;53.198;6.592;2023-09-19T05:10:44;9.63;;;2.10;;
20482;SDS011;10400;53.198;6.592;2023-09-19T05:13:10;11.00;;;2.75;;
20482;SDS011;10400;53.198;6.592;2023-09-19T05:15:37;12.43;;;2.22;;
20482;SDS011;10400;53.198;6.592;2023-09-19T05:18:04;7.25;;;1.70;;
20482;SDS011;10400;53.198;6.592;2023-09-19T05:20:31;10.57;;;2.10;;
20482;SDS011;10400;53.198;6.592;2023-09-19T05:23:03;11.23;;;2.45;;
20482;SDS011;10400;53.198;6.592;2023-09-19T05:25:33;10.32;;;1.83;;
20482;SDS011;10400;53.198;6.592;2023-09-19T05:28:02;13.40;;;2.53;;
20482;SDS011;10400;53.198;6.592;2023-09-19T05:30:28;9.65;;;2.10;;
20482;SDS011;10400;53.198;6.592;2023-09-19T05:32:54;11.32;;;1.67;;
20482;SDS011;10400;53.198;6.592;2023-09-19T05:35:24;9.05;;;2.22;;
20482;SDS011;10400;53.198;6.592;2023-09-19T05:37:50;14.57;;;2.55;;
20482;SDS011;10400;53.198;6.592;2023-09-19T05:40:17;9.95;;;1.90;;
20482;SDS011;10400;53.198;6.592;2023-09-19T05:42:43;8.48;;;2.25;;
20482;SDS011;10400;53.198;6.592;2023-09-19T05:45:09;13.13;;;2.05;;
20482;SDS011;10400;53.198;6.592;2023-09-19T05:47:41;11.50;;;2.45;;
20482;SDS011;10400;53.198;6.592;2023-09-19T05:50:11;12.15;;;2.30;;
20482;SDS011;10400;53.198;6.592;2023-09-19T05:52:38;11.80;;;2.10;;
20482;SDS011;10400;53.198;6.592;2023-09-19T05:55:04;8.63;;;2.30;;
20482;SDS011;10400;53.198;6.592;2023-09-19T05:57:31;7.72;;;2.05;;
20482;SDS011;10400;53.198;6.592;2023-09-19T05:59:57;10.07;;;1.90;;
20482;SDS011;10400;53.198;6.592;2023-09-19T06:02:23;10.45;;;2.42;;
20482;SDS011;10400;53.198;6.592;2023-09-19T06:04:53;8.63;;;2.03;;
20482;SDS011;10400;53.198;6.592;2023-09-19T06:07:20;13.65;;;2.28;;
20482;SDS011;10400;53.198;6.592;2023-09-19T06:09:48;15.70;;;2.67;;
20482;SDS011;10400;53.198;6.592;2023-09-19T06:12:14;10.63;;;1.90;;
20482;SDS011;10400;53.198;6.592;2023-09-19T06:14:42;7.50;;;1.88;;
20482;SDS011;10400;53.198;6.592;2023-09-19T06:17:08;12.55;;;2.85;;
20482;SDS011;10400;53.198;6.592;2023-09-19T06:19:34;9.20;;;2.13;;
20482;SDS011;10400;53.198;6.592;2023-09-19T06:21:59;16.13;;;3.25;;
20482;SDS011;10400;53.198;6.592;2023-09-19T06:24:25;8.40;;;2.33;;
20482;SDS011;10400;53.198;6.592;2023-09-19T06:26:51;8.27;;;2.22;;
20482;SDS011;10400;53.198;6.592;2023-09-19T06:29:18;9.10;;;2.33;;
20482;SDS011;10400;53.198;6.592;2023-09-19T06:31:45;10.50;;;2.00;;
20482;SDS011;10400;53.198;6.592;2023-09-19T06:34:12;12.98;;;2.40;;
20482;SDS011;10400;53.198;6.592;2023-09-19T06:36:40;11.30;;;2.15;;
20482;SDS011;10400;53.198;6.592;2023-09-19T06:39:06;13.27;;;2.38;;
20482;SDS011;10400;53.198;6.592;2023-09-19T06:41:35;12.88;;;2.40;;
20482;SDS011;10400;53.198;6.592;2023-09-19T06:44:06;11.93;;;2.20;;
20482;SDS011;10400;53.198;6.592;2023-09-19T06:46:32;8.98;;;2.15;;
20482;SDS011;10400;53.198;6.592;2023-09-19T06:49:00;17.65;;;2.88;;
20482;SDS011;10400;53.198;6.592;2023-09-19T06:51:28;7.85;;;2.13;;
20482;SDS011;10400;53.198;6.592;2023-09-19T06:53:54;12.73;;;2.22;;
20482;SDS011;10400;53.198;6.592;2023-09-19T06:56:22;9.98;;;2.58;;
20482;SDS011;10400;53.198;6.592;2023-09-19T06:58:48;9.30;;;1.95;;
20482;SDS011;10400;53.198;6.592;2023-09-19T07:01:14;11.85;;;2.00;;
20482;SDS011;10400;53.198;6.592;2023-09-19T07:03:40;11.00;;;2.40;;
20482;SDS011;10400;53.198;6.592;2023-09-19T07:06:06;10.40;;;2.33;;
20482;SDS011;10400;53.198;6.592;2023-09-19T07:08:32;10.38;;;2.53;;
20482;SDS011;10400;53.198;6.592;2023-09-19T07:10:57;14.25;;;2.60;;
20482;SDS011;10400;53.198;6.592;2023-09-19T07:13:23;10.48;;;1.90;;
20482;SDS011;10400;53.198;6.592;2023-09-19T07:15:50;13.23;;;2.83;;
20482;SDS011;10400;53.198;6.592;2023-09-19T07:18:16;14.60;;;2.28;;
20482;SDS011;10400;53.198;6.592;2023-09-19T07:20:42;9.65;;;2.25;;
20482;SDS011;10400;53.198;6.592;2023-09-19T07:23:14;12.15;;;3.28;;
20482;SDS011;10400;53.198;6.592;2023-09-19T07:25:46;13.63;;;2.25;;
20482;SDS011;10400;53.198;6.592;2023-09-19T07:28:13;9.00;;;2.20;;
20482;SDS011;10400;53.198;6.592;2023-09-19T07:30:39;7.93;;;2.67;;
20482;SDS011;10400;53.198;6.592;2023-09-19T07:33:06;11.80;;;2.13;;
20482;SDS011;10400;53.198;6.592;2023-09-19T07:35:32;10.85;;;2.10;;
20482;SDS011;10400;53.198;6.592;2023-09-19T07:37:58;8.38;;;2.38;;
20482;SDS011;10400;53.198;6.592;2023-09-19T07:40:26;8.55;;;1.98;;
20482;SDS011;10400;53.198;6.592;2023-09-19T07:42:54;9.40;;;2.47;;
20482;SDS011;10400;53.198;6.592;2023-09-19T07:45:26;10.15;;;2.38;;
20482;SDS011;10400;53.198;6.592;2023-09-19T07:47:56;9.93;;;2.22;;
20482;SDS011;10400;53.198;6.592;2023-09-19T07:50:22;13.15;;;3.08;;
20482;SDS011;10400;53.198;6.592;2023-09-19T07:52:48;10.52;;;2.47;;
20482;SDS011;10400;53.198;6.592;2023-09-19T07:55:16;13.35;;;2.53;;
20482;SDS011;10400;53.198;6.592;2023-09-19T07:57:42;13.80;;;3.20;;
20482;SDS011;10400;53.198;6.592;2023-09-19T08:00:09;11.18;;;2.35;;
20482;SDS011;10400;53.198;6.592;2023-09-19T08:02:38;12.18;;;2.22;;
20482;SDS011;10400;53.198;6.592;2023-09-19T08:05:09;12.07;;;2.35;;
20482;SDS011;10400;53.198;6.592;2023-09-19T08:07:39;9.10;;;2.28;;
20482;SDS011;10400;53.198;6.592;2023-09-19T08:10:05;13.32;;;2.63;;
20482;SDS011;10400;53.198;6.592;2023-09-19T08:12:42;10.77;;;2.38;;
20482;SDS011;10400;53.198;6.592;2023-09-19T08:15:15;11.07;;;2.40;;
20482;SDS011;10400;53.198;6.592;2023-09-19T08:17:42;11.35;;;2.25;;
20482;SDS011;10400;53.198;6.592;2023-09-19T08:20:08;10.80;;;2.13;;
20482;SDS011;10400;53.198;6.592;2023-09-19T08:25:19;11.05;;;2.15;;
20482;SDS011;10400;53.198;6.592;2023-09-19T08:27:46;10.20;;;3.05;;
20482;SDS011;10400;53.198;6.592;2023-09-19T08:30:17;9.23;;;1.83;;
20482;SDS011;10400;53.198;6.592;2023-09-19T08:32:48;11.98;;;2.33;;
20482;SDS011;10400;53.198;6.592;2023-09-19T08:35:15;12.10;;;2.88;;
20482;SDS011;10400;53.198;6.592;2023-09-19T08:37:41;11.85;;;2.42;;
20482;SDS011;10400;53.198;6.592;2023-09-19T08:40:08;9.52;;;2.33;;
20482;SDS011;10400;53.198;6.592;2023-09-19T08:42:50;10.35;;;2.22;;
20482;SDS011;10400;53.198;6.592;2023-09-19T08:45:19;8.38;;;2.45;;
20482;SDS011;10400;53.198;6.592;2023-09-19T08:48:31;12.38;;;2.53;;
20482;SDS011;10400;53.198;6.592;2023-09-19T08:50:43;7.75;;;1.90;;
20482;SDS011;10400;53.198;6.592;2023-09-19T08:53:22;9.32;;;2.10;;
20482;SDS011;10400;53.198;6.592;2023-09-19T08:55:57;11.07;;;2.20;;
20482;SDS011;10400;53.198;6.592;2023-09-19T08:58:27;12.60;;;2.85;;
20482;SDS011;10400;53.198;6.592;2023-09-19T09:01:05;9.15;;;2.13;;
20482;SDS011;10400;53.198;6.592;2023-09-19T09:03:32;14.65;;;2.90;;
20482;SDS011;10400;53.198;6.592;2023-09-19T09:06:00;10.35;;;2.53;;
20482;SDS011;10400;53.198;6.592;2023-09-19T09:08:26;10.45;;;2.70;;
20482;SDS011;10400;53.198;6.592;2023-09-19T09:10:53;15.43;;;3.13;;
20482;SDS011;10400;53.198;6.592;2023-09-19T09:13:19;12.05;;;3.05;;
20482;SDS011;10400;53.198;6.592;2023-09-19T09:15:47;13.52;;;2.70;;
20482;SDS011;10400;53.198;6.592;2023-09-19T09:18:13;9.85;;;2.70;;
20482;SDS011;10400;53.198;6.592;2023-09-19T09:20:39;10.70;;;2.85;;
20482;SDS011;10400;53.198;6.592;2023-09-19T09:23:06;11.70;;;3.13;;
20482;SDS011;10400;53.198;6.592;2023-09-19T09:25:47;18.45;;;3.30;;
20482;SDS011;10400;53.198;6.592;2023-09-19T09:28:19;16.38;;;3.30;;
20482;SDS011;10400;53.198;6.592;2023-09-19T09:30:46;10.30;;;2.80;;
20482;SDS011;10400;53.198;6.592;2023-09-19T09:33:12;13.57;;;3.47;;
20482;SDS011;10400;53.198;6.592;2023-09-19T09:38:43;14.88;;;2.97;;
20482;SDS011;10400;53.198;6.592;2023-09-19T09:41:11;11.82;;;3.28;;
20482;SDS011;10400;53.198;6.592;2023-09-19T09:43:40;17.92;;;3.13;;
20482;SDS011;10400;53.198;6.592;2023-09-19T09:48:46;15.25;;;3.20;;
20482;SDS011;10400;53.198;6.592;2023-09-19T09:51:32;11.15;;;3.20;;
20482;SDS011;10400;53.198;6.592;2023-09-19T09:54:16;14.57;;;2.80;;
20482;SDS011;10400;53.198;6.592;2023-09-19T09:56:52;18.45;;;3.42;;
20482;SDS011;10400;53.198;6.592;2023-09-19T10:00:07;10.85;;;2.90;;
20482;SDS011;10400;53.198;6.592;2023-09-19T10:02:15;14.57;;;3.35;;
20482;SDS011;10400;53.198;6.592;2023-09-19T10:04:54;14.38;;;3.25;;
20482;SDS011;10400;53.198;6.592;2023-09-19T10:07:35;11.35;;;2.88;;
20482;SDS011;10400;53.198;6.592;2023-09-19T10:10:03;12.50;;;3.22;;
20482;SDS011;10400;53.198;6.592;2023-09-19T10:12:50;13.80;;;2.80;;
20482;SDS011;10400;53.198;6.592;2023-09-19T10:15:21;14.57;;;3.40;;
20482;SDS011;10400;53.198;6.592;2023-09-19T10:17:52;15.32;;;3.10;;
20482;SDS011;10400;53.198;6.592;2023-09-19T10:20:21;11.55;;;2.80;;
20482;SDS011;10400;53.198;6.592;2023-09-19T10:23:03;16.25;;;2.95;;
20482;SDS011;10400;53.198;6.592;2023-09-19T10:25:38;10.00;;;2.55;;
20482;SDS011;10400;53.198;6.592;2023-09-19T10:28:09;10.40;;;2.65;;
20482;SDS011;10400;53.198;6.592;2023-09-19T10:30:57;10.43;;;2.80;;
20482;SDS011;10400;53.198;6.592;2023-09-19T10:33:23;13.75;;;2.88;;
20482;SDS011;10400;53.198;6.592;2023-09-19T10:36:00;13.73;;;2.67;;
20482;SDS011;10400;53.198;6.592;2023-09-19T10:38:28;13.52;;;2.47;;
20482;SDS011;10400;53.198;6.592;2023-09-19T10:40:56;11.50;;;2.90;;
20482;SDS011;10400;53.198;6.592;2023-09-19T10:43:26;13.90;;;2.78;;
20482;SDS011;10400;53.198;6.592;2023-09-19T10:45:57;13.15;;;2.63;;
20482;SDS011;10400;53.198;6.592;2023-09-19T10:48:31;10.65;;;2.60;;
20482;SDS011;10400;53.198;6.592;2023-09-19T10:53:40;16.02;;;2.78;;
20482;SDS011;10400;53.198;6.592;2023-09-19T10:56:20;13.48;;;2.97;;
20482;SDS011;10400;53.198;6.592;2023-09-19T11:01:45;9.00;;;2.80;;
20482;SDS011;10400;53.198;6.592;2023-09-19T11:04:34;12.32;;;2.58;;
20482;SDS011;10400;53.198;6.592;2023-09-19T11:07:10;10.07;;;2.80;;
20482;SDS011;10400;53.198;6.592;2023-09-19T11:12:26;14.73;;;2.90;;
20482;SDS011;10400;53.198;6.592;2023-09-19T11:15:07;10.25;;;2.45;;
20482;SDS011;10400;53.198;6.592;2023-09-19T11:17:36;18.10;;;3.05;;
20482;SDS011;10400;53.198;6.592;2023-09-19T11:28:27;15.30;;;3.20;;
20482;SDS011;10400;53.198;6.592;2023-09-19T11:30:55;19.33;;;3.05;;
20482;SDS011;10400;53.198;6.592;2023-09-19T11:33:30;11.60;;;2.65;;
20482;SDS011;10400;53.198;6.592;2023-09-19T11:41:57;9.18;;;2.83;;
20482;SDS011;10400;53.198;6.592;2023-09-19T11:46:30;11.50;;;2.15;;
20482;SDS011;10400;53.198;6.592;2023-09-19T11:49:08;11.50;;;2.90;;
20482;SDS011;10400;53.198;6.592;2023-09-19T11:51:41;15.05;;;3.05;;
20482;SDS011;10400;53.198;6.592;2023-09-19T11:54:12;8.38;;;2.30;;
20482;SDS011;10400;53.198;6.592;2023-09-19T11:56:48;13.23;;;2.53;;
20482;SDS011;10400;53.198;6.592;2023-09-19T11:59:21;10.90;;;2.75;;
20482;SDS011;10400;53.198;6.592;2023-09-19T12:01:58;10.23;;;2.60;;
20482;SDS011;10400;53.198;6.592;2023-09-19T12:04:35;10.73;;;2.55;;
20482;SDS011;10400;53.198;6.592;2023-09-19T12:07:14;15.85;;;3.35;;
20482;SDS011;10400;53.198;6.592;2023-09-19T12:09:47;8.98;;;2.78;;
20482;SDS011;10400;53.198;6.592;2023-09-19T12:12:25;10.27;;;3.08;;
20482;SDS011;10400;53.198;6.592;2023-09-19T12:14:54;13.05;;;2.55;;
20482;SDS011;10400;53.198;6.592;2023-09-19T12:17:23;13.65;;;2.80;;
20482;SDS011;10400;53.198;6.592;2023-09-19T12:20:06;8.60;;;2.72;;
20482;SDS011;10400;53.198;6.592;2023-09-19T12:22:39;10.18;;;2.35;;
20482;SDS011;10400;53.198;6.592;2023-09-19T12:25:06;11.07;;;2.40;;
20482;SDS011;10400;53.198;6.592;2023-09-19T12:27:41;17.80;;;3.10;;
20482;SDS011;10400;53.198;6.592;2023-09-19T12:30:08;13.23;;;2.85;;
20482;SDS011;10400;53.198;6.592;2023-09-19T12:32:35;11.88;;;2.85;;
20482;SDS011;10400;53.198;6.592;2023-09-19T12:35:02;14.15;;;2.67;;
20482;SDS011;10400;53.198;6.592;2023-09-19T12:37:35;14.07;;;2.45;;
20482;SDS011;10400;53.198;6.592;2023-09-19T12:40:05;13.10;;;2.72;;
20482;SDS011;10400;53.198;6.592;2023-09-19T12:42:42;13.73;;;2.53;;
20482;SDS011;10400;53.198;6.592;2023-09-19T12:45:09;9.55;;;2.00;;
20482;SDS011;10400;53.198;6.592;2023-09-19T12:47:38;10.48;;;2.53;;
20482;SDS011;10400;53.198;6.592;2023-09-19T12:55:28;12.70;;;2.55;;
20482;SDS011;10400;53.198;6.592;2023-09-19T12:58:13;10.13;;;2.28;;
20482;SDS011;10400;53.198;6.592;2023-09-19T13:00:43;11.35;;;2.15;;
20482;SDS011;10400;53.198;6.592;2023-09-19T13:05:55;11.73;;;3.15;;
20482;SDS011;10400;53.198;6.592;2023-09-19T13:13:27;10.30;;;2.38;;
20482;SDS011;10400;53.198;6.592;2023-09-19T13:15:54;7.90;;;2.17;;
20482;SDS011;10400;53.198;6.592;2023-09-19T13:18:22;8.02;;;2.42;;
20482;SDS011;10400;53.198;6.592;2023-09-19T13:21:06;9.75;;;2.10;;
20482;SDS011;10400;53.198;6.592;2023-09-19T13:23:37;13.75;;;2.15;;
20482;SDS011;10400;53.198;6.592;2023-09-19T13:26:03;8.63;;;1.73;;
20482;SDS011;10400;53.198;6.592;2023-09-19T13:28:33;12.88;;;2.17;;
20482;SDS011;10400;53.198;6.592;2023-09-19T13:30:59;11.57;;;2.30;;
20482;SDS011;10400;53.198;6.592;2023-09-19T13:33:24;8.68;;;1.98;;
20482;SDS011;10400;53.198;6.592;2023-09-19T13:35:51;8.82;;;1.90;;
20482;SDS011;10400;53.198;6.592;2023-09-19T13:38:20;12.90;;;2.20;;
20482;SDS011;10400;53.198;6.592;2023-09-19T13:40:47;10.55;;;2.20;;
20482;SDS011;10400;53.198;6.592;2023-09-19T13:43:13;11.70;;;2.38;;
20482;SDS011;10400;53.198;6.592;2023-09-19T13:45:41;6.72;;;1.58;;
20482;SDS011;10400;53.198;6.592;2023-09-19T13:48:09;8.30;;;2.38;;
20482;SDS011;10400;53.198;6.592;2023-09-19T13:50:40;10.65;;;1.88;;
20482;SDS011;10400;53.198;6.592;2023-09-19T13:53:09;6.53;;;1.58;;
20482;SDS011;10400;53.198;6.592;2023-09-19T13:55:35;11.48;;;1.80;;
20482;SDS011;10400;53.198;6.592;2023-09-19T13:58:02;7.57;;;1.58;;
20482;SDS011;10400;53.198;6.592;2023-09-19T14:00:31;7.50;;;1.77;;
20482;SDS011;10400;53.198;6.592;2023-09-19T14:02:59;7.93;;;1.50;;
20482;SDS011;10400;53.198;6.592;2023-09-19T14:05:29;7.50;;;1.80;;
20482;SDS011;10400;53.198;6.592;2023-09-19T14:07:55;9.75;;;1.70;;
20482;SDS011;10400;53.198;6.592;2023-09-19T14:10:24;7.40;;;1.50;;
20482;SDS011;10400;53.198;6.592;2023-09-19T14:12:53;8.27;;;1.73;;
20482;SDS011;10400;53.198;6.592;2023-09-19T14:15:21;8.98;;;2.53;;
20482;SDS011;10400;53.198;6.592;2023-09-19T14:17:54;4.93;;;1.65;;
20482;SDS011;10400;53.198;6.592;2023-09-19T14:20:24;7.25;;;1.65;;
20482;SDS011;10400;53.198;6.592;2023-09-19T14:22:51;8.65;;;1.65;;
20482;SDS011;10400;53.198;6.592;2023-09-19T14:25:20;8.88;;;1.33;;
20482;SDS011;10400;53.198;6.592;2023-09-19T14:27:46;7.60;;;1.77;;
20482;SDS011;10400;53.198;6.592;2023-09-19T14:30:12;12.90;;;1.65;;
20482;SDS011;10400;53.198;6.592;2023-09-19T14:32:39;6.43;;;1.50;;
20482;SDS011;10400;53.198;6.592;2023-09-19T14:35:05;4.78;;;1.50;;
20482;SDS011;10400;53.198;6.592;2023-09-19T14:37:38;7.47;;;1.75;;
20482;SDS011;10400;53.198;6.592;2023-09-19T14:40:04;5.18;;;1.60;;
20482;SDS011;10400;53.198;6.592;2023-09-19T14:42:34;5.97;;;1.75;;
20482;SDS011;10400;53.198;6.592;2023-09-19T14:45:02;4.32;;;1.42;;
20482;SDS011;10400;53.198;6.592;2023-09-19T14:47:29;10.32;;;1.92;;
20482;SDS011;10400;53.198;6.592;2023-09-19T14:49:56;6.55;;;1.80;;
20482;SDS011;10400;53.198;6.592;2023-09-19T14:52:23;6.82;;;1.88;;
20482;SDS011;10400;53.198;6.592;2023-09-19T14:54:52;6.07;;;1.40;;
20482;SDS011;10400;53.198;6.592;2023-09-19T14:57:18;5.75;;;1.67;;
20482;SDS011;10400;53.198;6.592;2023-09-19T14:59:44;12.07;;;1.58;;
20482;SDS011;10400;53.198;6.592;2023-09-19T15:02:09;7.18;;;1.50;;
20482;SDS011;10400;53.198;6.592;2023-09-19T15:04:35;4.88;;;1.30;;
20482;SDS011;10400;53.198;6.592;2023-09-19T15:07:01;5.90;;;1.55;;
20482;SDS011;10400;53.198;6.592;2023-09-19T15:09:28;10.27;;;1.58;;
20482;SDS011;10400;53.198;6.592;2023-09-19T15:11:54;7.85;;;1.75;;
20482;SDS011;10400;53.198;6.592;2023-09-19T15:14:21;3.60;;;1.33;;
20482;SDS011;10400;53.198;6.592;2023-09-19T15:16:47;5.35;;;1.30;;
20482;SDS011;10400;53.198;6.592;2023-09-19T15:19:14;5.30;;;1.50;;
20482;SDS011;10400;53.198;6.592;2023-09-19T15:21:40;3.58;;;1.38;;
20482;SDS011;10400;53.198;6.592;2023-09-19T15:24:06;6.03;;;1.40;;
20482;SDS011;10400;53.198;6.592;2023-09-19T15:26:38;6.18;;;1.85;;
20482;SDS011;10400;53.198;6.592;2023-09-19T15:29:07;5.95;;;1.58;;
20482;SDS011;10400;53.198;6.592;2023-09-19T15:31:34;7.95;;;1.52;;
20482;SDS011;10400;53.198;6.592;2023-09-19T15:34:03;7.18;;;1.50;;
20482;SDS011;10400;53.198;6.592;2023-09-19T15:36:31;11.40;;;2.00;;
20482;SDS011;10400;53.198;6.592;2023-09-19T15:39:03;6.28;;;1.65;;
20482;SDS011;10400;53.198;6.592;2023-09-19T15:41:39;7.25;;;1.58;;
20482;SDS011;10400;53.198;6.592;2023-09-19T15:44:13;8.60;;;1.63;;
20482;SDS011;10400;53.198;6.592;2023-09-19T15:46:41;4.85;;;1.40;;
20482;SDS011;10400;53.198;6.592;2023-09-19T15:49:07;5.35;;;1.20;;
20482;SDS011;10400;53.198;6.592;2023-09-19T15:51:33;10.70;;;1.80;;
20482;SDS011;10400;53.198;6.592;2023-09-19T15:54:01;4.72;;;1.70;;